createdAt,value
2022-07-28T00:03:15.976Z,100849.31
2022-07-28T00:08:18.528Z,100839.13
2022-07-28T00:13:21.014Z,100840.88
2022-07-28T00:18:26.185Z,100836.38
2022-07-28T00:23:38.890Z,100839.25
2022-07-28T00:28:42.272Z,100840.38
2022-07-28T00:33:46.511Z,100842.03
2022-07-28T00:38:49.024Z,100845.59
2022-07-28T00:43:54.074Z,100840.38
2022-07-28T00:48:57.965Z,100833.09
2022-07-28T00:54:00.678Z,100835.25
2022-07-28T00:59:03.597Z,100826.75
2022-07-28T01:04:07.693Z,100828.94
2022-07-28T01:09:19.762Z,100823.78
2022-07-28T01:14:26.757Z,100834.47
2022-07-28T01:19:50.670Z,100835.94
2022-07-28T01:25:00.268Z,100835.06
2022-07-28T01:30:07.378Z,100836.53
2022-07-28T01:35:15.491Z,100826.13
2022-07-28T01:40:21.778Z,100830.31
2022-07-28T01:45:25.956Z,100828.13
2022-07-28T01:50:32.195Z,100827.06
2022-07-28T01:55:36.031Z,100826.03
2022-07-28T02:00:40.280Z,100826.03
2022-07-28T02:05:45.703Z,100828.25
2022-07-28T02:11:04.776Z,100825.88
2022-07-28T02:16:12.923Z,100831.69
2022-07-28T02:21:17.363Z,100836.00
2022-07-28T02:26:22.960Z,100829.50
2022-07-28T02:31:28.999Z,100835.53
2022-07-28T02:36:38.987Z,100829.22
2022-07-28T02:41:45.050Z,100836.00
2022-07-28T02:46:52.297Z,100838.69
2022-07-28T02:51:56.877Z,100847.44
2022-07-28T02:57:00.246Z,100850.94
2022-07-28T03:02:03.584Z,100858.66
2022-07-28T03:07:07.887Z,100854.59
2022-07-28T03:12:11.069Z,100854.00
2022-07-28T03:17:13.850Z,100864.59
2022-07-28T03:22:17.783Z,100855.50
2022-07-28T03:27:23.880Z,100863.63
2022-07-28T03:32:28.546Z,100864.22
2022-07-28T03:37:36.958Z,100868.28
2022-07-28T03:42:41.841Z,100866.09
2022-07-28T03:47:51.175Z,100862.00
2022-07-28T03:52:55.433Z,100868.56
2022-07-28T03:57:58.182Z,100860.09
2022-07-28T04:03:00.639Z,100872.41
2022-07-28T04:08:04.572Z,100875.69
2022-07-28T04:13:07.877Z,100869.34
2022-07-28T04:18:10.593Z,100865.53
2022-07-28T04:23:14.469Z,100855.09
2022-07-28T04:28:17.051Z,100853.25
2022-07-28T04:33:19.687Z,100852.06
2022-07-28T04:38:23.506Z,100858.69
2022-07-28T04:43:26.275Z,100861.56
2022-07-28T04:48:28.758Z,100860.09
2022-07-28T04:53:32.556Z,100861.63
2022-07-28T04:58:35.044Z,100867.53
2022-07-28T05:03:37.963Z,100860.44
2022-07-28T05:08:41.844Z,100853.13
2022-07-28T05:13:44.384Z,100853.19
2022-07-28T05:18:47.265Z,100848.06
2022-07-28T05:23:51.307Z,100852.56
2022-07-28T05:28:53.793Z,100851.63
2022-07-28T05:33:56.312Z,100848.16
2022-07-28T05:39:00.834Z,100852.81
2022-07-28T05:44:03.533Z,100860.72
2022-07-28T05:49:06.403Z,100868.03
2022-07-28T05:54:10.380Z,100870.09
2022-07-28T05:59:14.852Z,100870.28
2022-07-28T06:04:27.754Z,100876.06
2022-07-28T06:09:32.325Z,100871.91
2022-07-28T06:14:35.037Z,100877.63
2022-07-28T06:19:37.558Z,100875.19
2022-07-28T06:24:41.374Z,100883.31
2022-07-28T06:29:43.950Z,100880.69
2022-07-28T06:34:46.420Z,100873.53
2022-07-28T06:39:50.274Z,100877.69
2022-07-28T06:44:58.955Z,100882.50
2022-07-28T06:50:02.732Z,100883.59
2022-07-28T06:55:07.416Z,100883.22
2022-07-28T07:00:14.280Z,100884.31
2022-07-28T07:05:16.866Z,100879.16
2022-07-28T07:10:20.695Z,100882.34
2022-07-28T07:15:23.187Z,100881.66
2022-07-28T07:20:25.745Z,100865.69
2022-07-28T07:25:29.542Z,100867.81
2022-07-28T07:30:32.031Z,100860.50
2022-07-28T07:35:35.070Z,100862.75
2022-07-28T07:40:38.947Z,100851.13
2022-07-28T07:45:42.064Z,100849.63
2022-07-28T07:50:44.975Z,100854.19
2022-07-28T07:55:48.781Z,100851.06
2022-07-28T08:00:51.585Z,100849.25
2022-07-28T08:05:56.651Z,100844.72
2022-07-28T08:11:01.351Z,100842.84
2022-07-28T08:16:07.162Z,100830.28
2022-07-28T08:21:09.614Z,100831.22
2022-07-28T08:26:13.376Z,100830.44
2022-07-28T08:31:17.751Z,100831.06
2022-07-28T08:36:20.641Z,100829.22
2022-07-28T08:41:37.560Z,100820.91
2022-07-28T08:46:40.810Z,100817.63
2022-07-28T08:51:44.569Z,100819.34
2022-07-28T08:56:49.209Z,100833.22
2022-07-28T09:01:57.258Z,100818.94
2022-07-28T09:07:00.316Z,100808.38
2022-07-28T09:12:05.761Z,100811.97
2022-07-28T09:17:08.712Z,100805.78
2022-07-28T09:22:11.288Z,100797.41
2022-07-28T09:27:16.500Z,100808.59
2022-07-28T09:32:20.524Z,100805.09
2022-07-28T09:37:27.475Z,100805.22
2022-07-28T09:42:47.024Z,100797.59
2022-07-28T09:47:49.824Z,100798.84
2022-07-28T09:52:52.474Z,100800.94
2022-07-28T09:57:56.877Z,100787.44
2022-07-28T10:03:00.486Z,100780.84
2022-07-28T10:08:03.372Z,100779.13
2022-07-28T10:13:07.327Z,100770.44
2022-07-28T10:18:09.821Z,100771.88
2022-07-28T10:23:13.707Z,100769.63
2022-07-28T10:28:21.830Z,100760.16
2022-07-28T10:33:26.411Z,100746.28
2022-07-28T10:38:34.722Z,100743.50
2022-07-28T10:43:42.930Z,100748.59
2022-07-28T10:48:48.293Z,100743.78
2022-07-28T10:53:57.021Z,100742.66
2022-07-28T10:59:11.735Z,100742.72
2022-07-28T11:04:52.302Z,100733.44
2022-07-28T11:10:16.266Z,100729.84
2022-07-28T11:15:33.485Z,100732.47
2022-07-28T11:21:08.522Z,100739.09
2022-07-28T11:26:37.324Z,100737.13
2022-07-28T11:32:06.223Z,100724.31
2022-07-28T11:37:14.963Z,100736.78
2022-07-28T11:42:27.440Z,100711.44
2022-07-28T11:47:31.776Z,100706.00
2022-07-28T11:52:34.350Z,100698.38
2022-07-28T11:57:44.067Z,100696.72
2022-07-28T12:02:46.761Z,100696.28
2022-07-28T12:07:52.435Z,100695.94
2022-07-28T12:12:58.245Z,100692.50
2022-07-28T12:18:01.000Z,100687.00
2022-07-28T12:23:06.026Z,100684.94
2022-07-28T12:28:17.310Z,100673.50
2022-07-28T12:33:26.086Z,100674.53
2022-07-28T12:38:31.932Z,100660.97
2022-07-28T12:43:35.808Z,100653.91
2022-07-28T12:48:41.078Z,100651.00
2022-07-28T12:53:52.261Z,100641.22
2022-07-28T12:59:13.190Z,100651.56
2022-07-28T13:04:16.499Z,100647.91
2022-07-28T13:09:23.778Z,100629.81
2022-07-28T13:14:43.679Z,100627.66
2022-07-28T13:19:47.318Z,100634.81
2022-07-28T13:24:49.980Z,100634.72
2022-07-28T13:29:54.338Z,100647.44
2022-07-28T13:34:57.073Z,100631.63
2022-07-28T13:39:59.784Z,100621.59
2022-07-28T13:45:05.101Z,100608.38
2022-07-28T13:50:09.656Z,100611.06
2022-07-28T13:55:14.099Z,100615.53
2022-07-28T14:00:23.556Z,100617.66
2022-07-28T14:05:31.952Z,100612.38
2022-07-28T14:10:35.705Z,100600.41
2022-07-28T14:15:40.155Z,100591.91
2022-07-28T14:20:42.781Z,100594.50
2022-07-28T14:25:49.508Z,100591.34
2022-07-28T14:30:54.219Z,100590.91
2022-07-28T14:35:57.043Z,100591.63
2022-07-28T14:40:59.589Z,100585.41
2022-07-28T14:46:16.429Z,100576.38
2022-07-28T14:51:23.802Z,100577.22
2022-07-28T14:56:26.391Z,100585.25
2022-07-28T15:01:30.268Z,100591.69
2022-07-28T15:06:38.743Z,100580.00
2022-07-28T15:11:42.019Z,100570.75
2022-07-28T15:16:45.909Z,100570.75
2022-07-28T15:21:48.695Z,100562.50
2022-07-28T15:26:51.197Z,100559.38
2022-07-28T15:31:55.388Z,100571.00
2022-07-28T15:36:59.048Z,100557.41
2022-07-28T15:42:01.623Z,100556.16
2022-07-28T15:47:05.708Z,100550.03
2022-07-28T15:52:08.337Z,100557.81
2022-07-28T15:57:11.996Z,100542.53
2022-07-28T16:02:17.474Z,100557.72
2022-07-28T16:07:22.333Z,100537.25
2022-07-28T16:12:25.873Z,100532.16
2022-07-28T16:17:29.691Z,100539.84
2022-07-28T16:22:32.403Z,100540.38
2022-07-28T16:27:35.321Z,100535.44
2022-07-28T16:32:39.224Z,100532.97
2022-07-28T16:37:41.958Z,100537.56
2022-07-28T16:42:44.435Z,100537.09
2022-07-28T16:47:48.505Z,100532.94
2022-07-28T16:52:52.028Z,100538.75
2022-07-28T16:57:54.983Z,100530.97
2022-07-28T17:02:58.914Z,100537.47
2022-07-28T17:08:01.365Z,100533.13
2022-07-28T17:13:04.114Z,100527.28
2022-07-28T17:18:08.226Z,100524.53
2022-07-28T17:23:10.827Z,100533.22
2022-07-28T17:28:14.288Z,100528.56
2022-07-28T17:33:18.082Z,100529.66
2022-07-28T17:38:21.635Z,100531.53
2022-07-28T17:43:24.514Z,100530.09
2022-07-28T17:48:28.478Z,100536.22
2022-07-28T17:53:31.076Z,100540.69
2022-07-28T17:58:33.810Z,100525.25
2022-07-28T18:03:57.649Z,100540.84
2022-07-28T18:09:06.646Z,100537.47
2022-07-28T18:14:09.821Z,100539.44
2022-07-28T18:19:13.963Z,100534.53
2022-07-28T18:24:18.017Z,100531.78
2022-07-28T18:29:21.781Z,100529.19
2022-07-28T18:34:25.861Z,100529.16
2022-07-28T18:39:28.411Z,100527.53
2022-07-28T18:44:31.087Z,100537.59
2022-07-28T18:49:37.271Z,100528.31
2022-07-28T18:54:40.472Z,100532.56
2022-07-28T18:59:45.612Z,100540.19
2022-07-28T19:04:52.954Z,100539.59
2022-07-28T19:09:55.446Z,100549.56
2022-07-28T19:14:59.088Z,100549.09
2022-07-28T19:20:03.002Z,100556.38
2022-07-28T19:25:07.757Z,100572.50
2022-07-28T19:30:11.042Z,100574.25
2022-07-28T19:35:15.063Z,100579.53
2022-07-28T19:40:17.889Z,100583.28
2022-07-28T19:45:23.375Z,100581.53
2022-07-28T19:50:27.561Z,100586.84
2022-07-28T19:55:32.226Z,100584.69
2022-07-28T20:00:34.793Z,100585.69
2022-07-28T20:05:38.987Z,100585.31
2022-07-28T20:10:41.675Z,100592.06
2022-07-28T20:15:44.158Z,100593.94
2022-07-28T20:20:48.361Z,100590.88
2022-07-28T20:25:51.119Z,100586.25
2022-07-28T20:30:53.648Z,100600.00
2022-07-28T20:35:57.682Z,100605.41
2022-07-28T20:41:00.135Z,100612.53
2022-07-28T20:46:09.049Z,100612.34
2022-07-28T20:51:12.914Z,100616.50
2022-07-28T20:56:15.781Z,100620.66
2022-07-28T21:01:23.314Z,100624.59
2022-07-28T21:06:27.935Z,100626.94
2022-07-28T21:11:34.743Z,100633.38
2022-07-28T21:16:37.811Z,100628.75
2022-07-28T21:21:42.072Z,100626.38
2022-07-28T21:26:44.831Z,100628.25
2022-07-28T21:32:02.348Z,100620.31
2022-07-28T21:37:11.907Z,100629.34
2022-07-28T21:42:14.520Z,100628.53
2022-07-28T21:47:17.071Z,100638.22
2022-07-28T21:52:21.933Z,100637.31
2022-07-28T21:57:25.015Z,100634.00
2022-07-28T22:02:28.235Z,100645.25
2022-07-28T22:07:32.995Z,100647.19
2022-07-28T22:12:35.488Z,100669.28
2022-07-28T22:17:38.028Z,100667.97
2022-07-28T22:22:42.020Z,100671.53
2022-07-28T22:27:44.523Z,100666.94
2022-07-28T22:32:47.177Z,100680.50
2022-07-28T22:37:51.154Z,100685.91
2022-07-28T22:42:53.627Z,100691.16
2022-07-28T22:47:56.103Z,100686.53
2022-07-28T22:52:59.977Z,100689.16
2022-07-28T22:58:05.567Z,100705.41
2022-07-28T23:03:08.610Z,100706.44
2022-07-28T23:08:16.838Z,100701.13
2022-07-28T23:13:19.381Z,100696.00
2022-07-28T23:18:21.820Z,100674.03
2022-07-28T23:23:25.804Z,100688.72
2022-07-28T23:28:28.282Z,100696.16
2022-07-28T23:33:56.441Z,100690.03
2022-07-28T23:38:55.942Z,100678.66
2022-07-28T23:43:58.423Z,100681.91
2022-07-28T23:49:01.137Z,100685.75
2022-07-28T23:54:05.441Z,100678.47
2022-07-28T23:59:11.782Z,100668.19
